sensor_id;sensor_type;location;lat;lon;timestamp;P1;durP1;ratioP1;P2;durP2;ratioP2
71821;SDS011;64096;52.548;13.406;2023-04-16T06:04:56;16.73;;;12.88;;
71821;SDS011;64096;52.548;13.406;2023-04-16T06:07:22;19.33;;;14.32;;
71821;SDS011;64096;52.548;13.406;2023-04-16T06:09:48;19.77;;;14.57;;
71821;SDS011;64096;52.548;13.406;2023-04-16T06:12:14;17.45;;;13.60;;
71821;SDS011;64096;52.548;13.406;2023-04-16T06:14:40;19.20;;;14.05;;
71821;SDS011;64096;52.548;13.406;2023-04-16T06:17:06;19.23;;;14.63;;
71821;SDS011;64096;52.548;13.406;2023-04-16T06:19:32;17.38;;;13.07;;
71821;SDS011;64096;52.548;13.406;2023-04-16T06:21:58;18.63;;;13.70;;
71821;SDS011;64096;52.548;13.406;2023-04-16T06:24:25;18.65;;;13.88;;
71821;SDS011;64096;52.548;13.406;2023-04-16T06:26:51;17.83;;;13.63;;
71821;SDS011;64096;52.548;13.406;2023-04-16T06:29:20;21.48;;;15.93;;
71821;SDS011;64096;52.548;13.406;2023-04-16T06:31:46;17.70;;;14.57;;
71821;SDS011;64096;52.548;13.406;2023-04-16T06:34:13;18.77;;;13.88;;
71821;SDS011;64096;52.548;13.406;2023-04-16T06:36:39;16.85;;;13.35;;
71821;SDS011;64096;52.548;13.406;2023-04-16T06:39:05;18.05;;;14.77;;
71821;SDS011;64096;52.548;13.406;2023-04-16T06:41:31;16.23;;;13.13;;
71821;SDS011;64096;52.548;13.406;2023-04-16T06:43:57;16.95;;;13.10;;
71821;SDS011;64096;52.548;13.406;2023-04-16T06:46:23;19.48;;;15.27;;
71821;SDS011;64096;52.548;13.406;2023-04-16T06:48:49;19.10;;;14.93;;
71821;SDS011;64096;52.548;13.406;2023-04-16T06:51:15;18.88;;;14.40;;
71821;SDS011;64096;52.548;13.406;2023-04-16T06:53:41;19.83;;;14.93;;
71821;SDS011;64096;52.548;13.406;2023-04-16T06:56:07;19.30;;;13.93;;
71821;SDS011;64096;52.548;13.406;2023-04-16T06:58:33;17.77;;;13.98;;
71821;SDS011;64096;52.548;13.406;2023-04-16T07:01:00;18.85;;;14.55;;
71821;SDS011;64096;52.548;13.406;2023-04-16T07:03:26;19.88;;;15.07;;
71821;SDS011;64096;52.548;13.406;2023-04-16T07:05:53;18.73;;;14.73;;
71821;SDS011;64096;52.548;13.406;2023-04-16T07:08:19;19.30;;;14.82;;
71821;SDS011;64096;52.548;13.406;2023-04-16T07:10:45;18.83;;;14.50;;
71821;SDS011;64096;52.548;13.406;2023-04-16T07:13:11;20.75;;;15.57;;
71821;SDS011;64096;52.548;13.406;2023-04-16T07:15:37;18.10;;;14.40;;
71821;SDS011;64096;52.548;13.406;2023-04-16T07:18:03;17.90;;;13.68;;
71821;SDS011;64096;52.548;13.406;2023-04-16T07:20:29;18.65;;;13.85;;
71821;SDS011;64096;52.548;13.406;2023-04-16T07:22:55;18.88;;;14.25;;
71821;SDS011;64096;52.548;13.406;2023-04-16T07:25:23;17.58;;;13.93;;
71821;SDS011;64096;52.548;13.406;2023-04-16T07:27:50;20.83;;;15.52;;
71821;SDS011;64096;52.548;13.406;2023-04-16T07:30:16;20.75;;;15.57;;
71821;SDS011;64096;52.548;13.406;2023-04-16T07:32:42;19.08;;;15.05;;
71821;SDS011;64096;52.548;13.406;2023-04-16T07:35:09;18.40;;;14.88;;
71821;SDS011;64096;52.548;13.406;2023-04-16T07:37:35;18.58;;;15.27;;
71821;SDS011;64096;52.548;13.406;2023-04-16T07:40:01;18.70;;;14.02;;
71821;SDS011;64096;52.548;13.406;2023-04-16T07:42:28;18.63;;;14.18;;
71821;SDS011;64096;52.548;13.406;2023-04-16T07:44:54;16.98;;;13.60;;
71821;SDS011;64096;52.548;13.406;2023-04-16T07:47:20;17.40;;;14.07;;
71821;SDS011;64096;52.548;13.406;2023-04-16T07:49:50;15.10;;;11.45;;
71821;SDS011;64096;52.548;13.406;2023-04-16T07:52:19;20.45;;;13.88;;
71821;SDS011;64096;52.548;13.406;2023-04-16T07:54:46;17.00;;;12.80;;
71821;SDS011;64096;52.548;13.406;2023-04-16T07:57:12;18.52;;;13.85;;
71821;SDS011;64096;52.548;13.406;2023-04-16T07:59:38;20.02;;;14.32;;
71821;SDS011;64096;52.548;13.406;2023-04-16T08:02:04;17.05;;;13.25;;
71821;SDS011;64096;52.548;13.406;2023-04-16T08:04:31;19.25;;;14.02;;
71821;SDS011;64096;52.548;13.406;2023-04-16T08:06:57;20.10;;;13.55;;
71821;SDS011;64096;52.548;13.406;2023-04-16T08:09:25;16.85;;;12.00;;
71821;SDS011;64096;52.548;13.406;2023-04-16T08:11:52;18.23;;;13.50;;
71821;SDS011;64096;52.548;13.406;2023-04-16T08:14:18;17.38;;;13.52;;
71821;SDS011;64096;52.548;13.406;2023-04-16T08:16:44;18.27;;;13.35;;
71821;SDS011;64096;52.548;13.406;2023-04-16T08:19:11;16.92;;;12.65;;
71821;SDS011;64096;52.548;13.406;2023-04-16T08:21:37;17.80;;;13.10;;
71821;SDS011;64096;52.548;13.406;2023-04-16T08:24:03;17.27;;;13.25;;
71821;SDS011;64096;52.548;13.406;2023-04-16T08:26:29;17.98;;;13.77;;
71821;SDS011;64096;52.548;13.406;2023-04-16T08:28:55;17.70;;;12.50;;
71821;SDS011;64096;52.548;13.406;2023-04-16T08:31:21;19.08;;;13.70;;
71821;SDS011;64096;52.548;13.406;2023-04-16T08:33:47;19.27;;;13.98;;
71821;SDS011;64096;52.548;13.406;2023-04-16T08:36:13;15.98;;;12.40;;
71821;SDS011;64096;52.548;13.406;2023-04-16T08:38:39;16.58;;;12.75;;
71821;SDS011;64096;52.548;13.406;2023-04-16T08:41:05;17.50;;;13.32;;
71821;SDS011;64096;52.548;13.406;2023-04-16T08:43:35;16.48;;;12.55;;
71821;SDS011;64096;52.548;13.406;2023-04-16T08:46:02;18.38;;;13.45;;
71821;SDS011;64096;52.548;13.406;2023-04-16T08:48:31;18.98;;;13.98;;
71821;SDS011;64096;52.548;13.406;2023-04-16T08:50:57;19.08;;;14.43;;
71821;SDS011;64096;52.548;13.406;2023-04-16T08:53:27;22.27;;;15.73;;
71821;SDS011;64096;52.548;13.406;2023-04-16T08:55:54;17.10;;;13.43;;
71821;SDS011;64096;52.548;13.406;2023-04-16T08:58:24;18.08;;;13.48;;
71821;SDS011;64096;52.548;13.406;2023-04-16T09:00:55;19.08;;;14.57;;
71821;SDS011;64096;52.548;13.406;2023-04-16T09:03:21;17.67;;;13.93;;
71821;SDS011;64096;52.548;13.406;2023-04-16T09:05:48;17.42;;;14.23;;
71821;SDS011;64096;52.548;13.406;2023-04-16T09:08:14;16.38;;;13.25;;
71821;SDS011;64096;52.548;13.406;2023-04-16T09:10:40;17.67;;;12.50;;
71821;SDS011;64096;52.548;13.406;2023-04-16T09:13:07;15.40;;;12.40;;
71821;SDS011;64096;52.548;13.406;2023-04-16T09:15:37;17.52;;;12.43;;
71821;SDS011;64096;52.548;13.406;2023-04-16T09:18:04;16.15;;;12.90;;
71821;SDS011;64096;52.548;13.406;2023-04-16T09:20:30;14.38;;;11.45;;
71821;SDS011;64096;52.548;13.406;2023-04-16T09:22:56;14.13;;;10.88;;
71821;SDS011;64096;52.548;13.406;2023-04-16T09:25:22;14.75;;;11.45;;
71821;SDS011;64096;52.548;13.406;2023-04-16T09:27:50;12.75;;;10.32;;
71821;SDS011;64096;52.548;13.406;2023-04-16T09:30:20;15.07;;;11.00;;
71821;SDS011;64096;52.548;13.406;2023-04-16T09:32:46;14.18;;;11.20;;
71821;SDS011;64096;52.548;13.406;2023-04-16T09:35:13;16.38;;;11.90;;
71821;SDS011;64096;52.548;13.406;2023-04-16T09:37:40;14.60;;;11.70;;
71821;SDS011;64096;52.548;13.406;2023-04-16T09:40:06;16.13;;;11.70;;
71821;SDS011;64096;52.548;13.406;2023-04-16T09:42:34;13.27;;;11.45;;
71821;SDS011;64096;52.548;13.406;2023-04-16T09:45:03;15.57;;;13.18;;
71821;SDS011;64096;52.548;13.406;2023-04-16T09:47:39;17.42;;;13.60;;
71821;SDS011;64096;52.548;13.406;2023-04-16T09:50:06;15.73;;;11.93;;
71821;SDS011;64096;52.548;13.406;2023-04-16T09:52:41;18.00;;;13.13;;
71821;SDS011;64096;52.548;13.406;2023-04-16T09:55:08;18.95;;;14.60;;
71821;SDS011;64096;52.548;13.406;2023-04-16T09:57:35;16.63;;;13.48;;
71821;SDS011;64096;52.548;13.406;2023-04-16T10:00:03;17.70;;;13.88;;
71821;SDS011;64096;52.548;13.406;2023-04-16T10:02:30;18.52;;;14.18;;
71821;SDS011;64096;52.548;13.406;2023-04-16T10:04:59;20.52;;;14.50;;
71821;SDS011;64096;52.548;13.406;2023-04-16T10:07:29;17.75;;;14.07;;
71821;SDS011;64096;52.548;13.406;2023-04-16T10:09:57;18.70;;;14.80;;
71821;SDS011;64096;52.548;13.406;2023-04-16T10:12:23;20.52;;;15.38;;
71821;SDS011;64096;52.548;13.406;2023-04-16T10:14:51;18.83;;;15.45;;
71821;SDS011;64096;52.548;13.406;2023-04-16T10:17:17;17.08;;;13.55;;
71821;SDS011;64096;52.548;13.406;2023-04-16T10:19:44;21.00;;;15.65;;
71821;SDS011;64096;52.548;13.406;2023-04-16T10:22:10;21.65;;;16.33;;
71821;SDS011;64096;52.548;13.406;2023-04-16T10:24:37;22.58;;;17.17;;
71821;SDS011;64096;52.548;13.406;2023-04-16T10:27:04;20.55;;;16.25;;
71821;SDS011;64096;52.548;13.406;2023-04-16T10:29:30;19.38;;;15.77;;
71821;SDS011;64096;52.548;13.406;2023-04-16T10:31:56;19.92;;;16.27;;
71821;SDS011;64096;52.548;13.406;2023-04-16T10:34:23;19.33;;;15.55;;
71821;SDS011;64096;52.548;13.406;2023-04-16T10:36:50;18.52;;;15.57;;
71821;SDS011;64096;52.548;13.406;2023-04-16T10:39:18;22.05;;;16.52;;
71821;SDS011;64096;52.548;13.406;2023-04-16T10:41:45;20.00;;;15.35;;
71821;SDS011;64096;52.548;13.406;2023-04-16T10:44:11;18.75;;;15.45;;
71821;SDS011;64096;52.548;13.406;2023-04-16T10:46:38;17.88;;;14.45;;
71821;SDS011;64096;52.548;13.406;2023-04-16T10:51:39;18.85;;;15.52;;
71821;SDS011;64096;52.548;13.406;2023-04-16T10:56:42;18.40;;;14.43;;
71821;SDS011;64096;52.548;13.406;2023-04-16T10:59:09;18.50;;;14.88;;
71821;SDS011;64096;52.548;13.406;2023-04-16T11:01:42;16.88;;;15.05;;
71821;SDS011;64096;52.548;13.406;2023-04-16T11:07:00;14.80;;;12.85;;
71821;SDS011;64096;52.548;13.406;2023-04-16T11:09:43;14.65;;;12.18;;
71821;SDS011;64096;52.548;13.406;2023-04-16T11:12:13;15.88;;;13.73;;
71821;SDS011;64096;52.548;13.406;2023-04-16T11:14:40;15.60;;;13.23;;
71821;SDS011;64096;52.548;13.406;2023-04-16T11:17:06;15.10;;;13.02;;
71821;SDS011;64096;52.548;13.406;2023-04-16T11:19:34;16.55;;;14.30;;
71821;SDS011;64096;52.548;13.406;2023-04-16T11:22:02;15.30;;;13.70;;
71821;SDS011;64096;52.548;13.406;2023-04-16T11:24:28;17.50;;;14.45;;
71821;SDS011;64096;52.548;13.406;2023-04-16T11:26:55;17.42;;;14.32;;
71821;SDS011;64096;52.548;13.406;2023-04-16T11:29:21;14.23;;;12.10;;
71821;SDS011;64096;52.548;13.406;2023-04-16T11:31:50;13.07;;;11.68;;
71821;SDS011;64096;52.548;13.406;2023-04-16T11:34:17;13.02;;;11.63;;
71821;SDS011;64096;52.548;13.406;2023-04-16T11:36:44;12.98;;;11.65;;
71821;SDS011;64096;52.548;13.406;2023-04-16T11:39:10;14.63;;;13.13;;
71821;SDS011;64096;52.548;13.406;2023-04-16T11:41:42;13.60;;;12.15;;
71821;SDS011;64096;52.548;13.406;2023-04-16T11:44:22;13.98;;;12.20;;
71821;SDS011;64096;52.548;13.406;2023-04-16T11:46:48;14.27;;;12.77;;
71821;SDS011;64096;52.548;13.406;2023-04-16T11:49:15;13.13;;;11.45;;
71821;SDS011;64096;52.548;13.406;2023-04-16T11:51:45;10.98;;;9.63;;
71821;SDS011;64096;52.548;13.406;2023-04-16T11:54:21;10.65;;;9.55;;
71821;SDS011;64096;52.548;13.406;2023-04-16T11:56:48;10.35;;;9.05;;
71821;SDS011;64096;52.548;13.406;2023-04-16T11:59:18;12.38;;;9.98;;
71821;SDS011;64096;52.548;13.406;2023-04-16T12:01:49;11.15;;;9.73;;
71821;SDS011;64096;52.548;13.406;2023-04-16T12:04:16;12.00;;;9.60;;
71821;SDS011;64096;52.548;13.406;2023-04-16T12:09:27;9.45;;;7.75;;
71821;SDS011;64096;52.548;13.406;2023-04-16T12:11:53;9.45;;;7.88;;
71821;SDS011;64096;52.548;13.406;2023-04-16T12:14:19;10.35;;;8.23;;
71821;SDS011;64096;52.548;13.406;2023-04-16T12:16:45;10.15;;;8.10;;
71821;SDS011;64096;52.548;13.406;2023-04-16T12:19:12;10.82;;;8.65;;
71821;SDS011;64096;52.548;13.406;2023-04-16T12:21:39;9.93;;;7.90;;
71821;SDS011;64096;52.548;13.406;2023-04-16T12:24:06;8.95;;;7.90;;
71821;SDS011;64096;52.548;13.406;2023-04-16T12:26:36;11.27;;;7.50;;
71821;SDS011;64096;52.548;13.406;2023-04-16T12:29:24;9.70;;;8.48;;
71821;SDS011;64096;52.548;13.406;2023-04-16T12:31:52;8.95;;;7.28;;
71821;SDS011;64096;52.548;13.406;2023-04-16T12:34:19;9.18;;;7.13;;
71821;SDS011;64096;52.548;13.406;2023-04-16T12:36:45;9.73;;;8.05;;
71821;SDS011;64096;52.548;13.406;2023-04-16T12:39:12;9.48;;;6.97;;
71821;SDS011;64096;52.548;13.406;2023-04-16T12:41:39;9.20;;;7.45;;
71821;SDS011;64096;52.548;13.406;2023-04-16T12:46:33;9.55;;;7.32;;
71821;SDS011;64096;52.548;13.406;2023-04-16T12:48:59;8.38;;;6.88;;
71821;SDS011;64096;52.548;13.406;2023-04-16T12:51:25;8.77;;;7.32;;
71821;SDS011;64096;52.548;13.406;2023-04-16T12:53:51;9.23;;;7.43;;
71821;SDS011;64096;52.548;13.406;2023-04-16T12:56:17;9.38;;;7.03;;
71821;SDS011;64096;52.548;13.406;2023-04-16T12:58:43;8.38;;;6.90;;
71821;SDS011;64096;52.548;13.406;2023-04-16T13:01:09;9.45;;;7.25;;
71821;SDS011;64096;52.548;13.406;2023-04-16T13:03:36;9.38;;;8.02;;
71821;SDS011;64096;52.548;13.406;2023-04-16T13:06:02;10.68;;;8.32;;
71821;SDS011;64096;52.548;13.406;2023-04-16T13:08:29;11.55;;;8.77;;
71821;SDS011;64096;52.548;13.406;2023-04-16T13:10:55;13.48;;;8.88;;
71821;SDS011;64096;52.548;13.406;2023-04-16T13:13:22;9.55;;;7.60;;
71821;SDS011;64096;52.548;13.406;2023-04-16T13:15:48;10.95;;;8.57;;
71821;SDS011;64096;52.548;13.406;2023-04-16T13:18:14;9.10;;;7.32;;
71821;SDS011;64096;52.548;13.406;2023-04-16T13:20:40;9.48;;;7.95;;
71821;SDS011;64096;52.548;13.406;2023-04-16T13:23:07;9.73;;;7.80;;
71821;SDS011;64096;52.548;13.406;2023-04-16T13:25:33;10.45;;;8.20;;
71821;SDS011;64096;52.548;13.406;2023-04-16T13:27:59;9.80;;;8.02;;
71821;SDS011;64096;52.548;13.406;2023-04-16T13:30:25;10.77;;;8.05;;
71821;SDS011;64096;52.548;13.406;2023-04-16T13:32:53;10.55;;;8.32;;
71821;SDS011;64096;52.548;13.406;2023-04-16T13:35:19;9.02;;;7.05;;
71821;SDS011;64096;52.548;13.406;2023-04-16T13:37:45;9.75;;;7.50;;
71821;SDS011;64096;52.548;13.406;2023-04-16T13:40:11;9.13;;;6.68;;
71821;SDS011;64096;52.548;13.406;2023-04-16T13:42:37;9.77;;;7.55;;
71821;SDS011;64096;52.548;13.406;2023-04-16T13:45:04;9.65;;;6.93;;
71821;SDS011;64096;52.548;13.406;2023-04-16T13:47:30;10.30;;;7.25;;
71821;SDS011;64096;52.548;13.406;2023-04-16T13:49:56;9.80;;;7.57;;
71821;SDS011;64096;52.548;13.406;2023-04-16T13:52:22;8.98;;;7.45;;
71821;SDS011;64096;52.548;13.406;2023-04-16T13:54:48;8.60;;;6.75;;
71821;SDS011;64096;52.548;13.406;2023-04-16T13:57:14;10.75;;;7.78;;
71821;SDS011;64096;52.548;13.406;2023-04-16T13:59:42;9.30;;;7.45;;
